Time;durP1;ratioP1;P1;durP2;ratioP2;P2;SDS_P1;SDS_P2;PMS_P1;PMS_P2;Temp;Humidity;BMP_temperature;BMP_pressure;BME280_temperature;BME280_humidity;BME280_pressure;Samples;Min_cycle;Max_cycle;Signal;HPM_P1;HPM_P2
2023/07/23 21:13:13;;;;;;;9.73;6.53;;;;;;;21.01;55.54;99544.28;1867791;76;26807;-56
2023/07/23 21:15:40;;;;;;;11.18;6.35;;;;;;;20.87;55.55;99543.17;1824432;77;25542;-53
2023/07/23 21:18:07;;;;;;;13.40;7.08;;;;;;;20.81;55.79;99541.99;1824353;78;27547;-57
2023/07/23 21:20:33;;;;;;;12.20;8.10;;;;;;;20.77;55.96;99545.36;1824243;78;25491;-54
2023/07/23 21:22:59;;;;;;;12.50;8.43;;;;;;;20.73;56.08;99536.92;1777207;78;25518;-53
2023/07/23 21:25:26;;;;;;;10.05;7.65;;;;;;;20.69;56.24;99540.45;1803874;78;25557;-56
2023/07/23 21:27:52;;;;;;;12.80;8.85;;;;;;;20.64;56.30;99535.36;1824342;78;25609;-57
2023/07/23 21:30:19;;;;;;;12.13;8.55;;;;;;;20.59;56.51;99530.23;1824348;78;27495;-55
2023/07/23 21:32:45;;;;;;;13.90;10.03;;;;;;;20.57;57.29;99537.30;1824262;78;26183;-52
2023/07/23 21:35:12;;;;;;;11.05;8.83;;;;;;;20.50;57.04;99516.91;1824404;78;25371;-52
2023/07/23 21:37:39;;;;;;;16.93;8.58;;;;;;;20.44;56.91;99512.99;1824313;78;25602;-56
2023/07/23 21:40:08;;;;;;;14.60;11.38;;;;;;;20.41;56.76;99508.88;1824327;78;25374;-57
2023/07/23 21:42:34;;;;;;;14.68;10.95;;;;;;;20.37;56.47;99520.47;1803981;78;27525;-55
2023/07/23 21:45:00;;;;;;;12.00;10.20;;;;;;;20.33;56.40;99525.38;1824192;78;25584;-57
2023/07/23 21:47:27;;;;;;;17.57;15.70;;;;;;;20.31;56.38;99509.88;1824370;78;25412;-56
2023/07/23 21:49:56;;;;;;;24.87;17.77;;;;;;;20.31;56.27;99501.64;1824315;78;25548;-58
2023/07/23 21:52:23;;;;;;;14.75;13.18;;;;;;;20.32;56.20;99494.19;1824403;78;25525;-58
2023/07/23 21:54:49;;;;;;;15.20;12.73;;;;;;;20.33;56.37;99497.13;1824326;78;27524;-57
2023/07/23 21:57:15;;;;;;;13.35;11.70;;;;;;;20.32;56.36;99503.80;1824214;78;25935;-54
2023/07/23 21:59:42;;;;;;;13.65;12.28;;;;;;;20.33;56.21;99521.85;1824285;78;25465;-56
2023/07/23 22:02:08;;;;;;;17.42;12.47;;;;;;;20.34;56.40;99516.53;1803781;78;25487;-57
2023/07/23 22:04:35;;;;;;;15.20;13.38;;;;;;;20.35;56.67;99518.11;1824346;78;25552;-56
2023/07/23 22:07:03;;;;;;;14.60;12.78;;;;;;;20.36;56.81;99531.25;1824341;78;27429;-56
2023/07/23 22:09:29;;;;;;;15.13;13.65;;;;;;;20.37;56.81;99526.73;1824243;78;25600;-56
2023/07/23 22:11:55;;;;;;;15.05;12.00;;;;;;;20.38;56.83;99528.89;1826283;78;25570;-57
2023/07/23 22:14:23;;;;;;;17.20;12.93;;;;;;;20.39;57.22;99533.22;1830365;77;25612;-57
2023/07/23 22:16:50;;;;;;;15.03;13.65;;;;;;;20.38;57.33;99531.63;1830591;78;25490;-55
2023/07/23 22:19:16;;;;;;;12.18;11.05;;;;;;;20.38;57.25;99529.69;1830378;77;27558;-55
2023/07/23 22:21:42;;;;;;;13.62;12.00;;;;;;;20.38;57.44;99527.52;1830375;77;25335;-56
2023/07/23 22:24:08;;;;;;;14.68;12.25;;;;;;;20.38;57.64;99522.83;1829945;78;25437;-56
2023/07/23 22:26:34;;;;;;;14.15;12.70;;;;;;;20.38;57.37;99515.95;1829808;77;25422;-56
2023/07/23 22:29:00;;;;;;;21.25;15.48;;;;;;;20.37;57.28;99514.98;1829849;78;25620;-57
2023/07/23 22:31:26;;;;;;;15.03;12.13;;;;;;;20.36;57.24;99518.30;1829919;77;27585;-58
2023/07/23 22:33:56;;;;;;;14.47;12.98;;;;;;;20.33;57.31;99508.13;1829712;77;25419;-56
2023/07/23 22:36:21;;;;;;;15.50;13.30;;;;;;;20.32;57.21;99512.03;1829638;77;25619;-56
2023/07/23 22:38:47;;;;;;;84.97;79.77;;;;;;;20.29;57.17;99510.06;1829905;77;25516;-54
2023/07/23 22:41:13;;;;;;;84.07;78.37;;;;;;;20.26;57.55;99508.11;1829833;78;25573;-53
2023/07/23 22:43:39;;;;;;;83.78;78.57;;;;;;;20.25;57.51;99504.59;1829775;78;29779;-52
2023/07/23 22:46:07;;;;;;;83.12;78.07;;;;;;;20.22;57.57;99509.48;1829746;78;25974;-52
2023/07/23 22:48:33;;;;;;;82.90;77.50;;;;;;;20.20;57.32;99518.70;1829808;78;25539;-53
2023/07/23 22:50:59;;;;;;;81.55;76.60;;;;;;;20.19;57.44;99516.35;1829806;77;25601;-51
2023/07/23 22:53:26;;;;;;;82.17;76.85;;;;;;;20.17;57.55;99511.25;1829802;78;25556;-52
2023/07/23 22:55:53;;;;;;;85.07;80.00;;;;;;;20.14;57.59;99520.27;1829796;77;27457;-50
2023/07/23 22:58:20;;;;;;;82.90;77.82;;;;;;;20.11;57.75;99514.98;1829686;78;25711;-53
2023/07/23 23:00:46;;;;;;;83.67;78.57;;;;;;;20.07;57.95;99507.33;1829798;78;25546;-52
2023/07/23 23:03:12;;;;;;;86.95;81.28;;;;;;;20.06;58.19;99511.86;1829780;77;25733;-51
2023/07/23 23:05:39;;;;;;;82.78;77.67;;;;;;;20.03;58.73;99507.92;1829781;77;25621;-51
2023/07/23 23:08:05;;;;;;;86.65;81.30;;;;;;;20.00;58.40;99501.06;1829748;78;27503;-53
2023/07/23 23:10:31;;;;;;;83.17;78.07;;;;;;;19.98;58.78;99499.31;1829822;78;25516;-50
2023/07/23 23:12:57;;;;;;;83.37;78.05;;;;;;;19.93;58.65;99490.27;1829587;77;25538;-50
2023/07/23 23:15:24;;;;;;;87.95;82.10;;;;;;;19.92;58.75;99490.66;1829709;78;25602;-50
2023/07/23 23:17:50;;;;;;;85.57;79.92;;;;;;;19.87;58.80;99487.74;1829763;77;25521;-51
2023/07/23 23:20:17;;;;;;;83.90;78.52;;;;;;;19.85;58.69;99490.06;1829842;77;27502;-50
2023/07/23 23:22:43;;;;;;;83.65;78.37;;;;;;;19.85;58.97;99492.81;1829652;77;25402;-51
2023/07/23 23:25:10;;;;;;;85.35;80.07;;;;;;;19.78;59.11;99475.78;1829805;77;25454;-55
2023/07/23 23:27:36;;;;;;;82.62;77.53;;;;;;;19.85;59.05;99490.66;1829656;77;25394;-52
2023/07/23 23:30:05;;;;;;;84.22;79.12;;;;;;;19.85;59.41;99487.33;1828944;77;25430;-55
2023/07/23 23:32:34;;;;;;;84.28;79.20;;;;;;;19.84;59.63;99488.52;1786820;78;27256;-52
2023/07/23 23:35:00;;;;;;;83.30;78.15;;;;;;;19.82;59.43;99469.48;1829688;77;25581;-53
2023/07/23 23:37:27;;;;;;;83.90;78.72;;;;;;;19.81;59.54;99476.17;1829782;77;25546;-60
2023/07/23 23:39:53;;;;;;;86.60;80.83;;;;;;;19.80;59.57;99466.36;1829782;77;25366;-51
2023/07/23 23:42:19;;;;;;;84.45;79.17;;;;;;;19.79;59.50;99472.45;1829791;78;25477;-51
2023/07/23 23:44:46;;;;;;;85.28;79.45;;;;;;;19.77;59.65;99476.17;1829772;78;27467;-52
2023/07/23 23:47:12;;;;;;;82.67;77.67;;;;;;;19.76;59.45;99469.11;1829662;78;25526;-51
2023/07/23 23:49:38;;;;;;;82.35;77.20;;;;;;;19.76;59.57;99474.59;1829827;77;25490;-54
2023/07/23 23:52:07;;;;;;;84.85;79.45;;;;;;;19.75;59.45;99471.64;1829775;77;25535;-51
2023/07/23 23:54:33;;;;;;;84.87;79.63;;;;;;;19.76;59.55;99467.73;1830061;77;25551;-52
2023/07/23 23:56:59;;;;;;;83.82;78.25;;;;;;;19.77;59.58;99469.31;1829784;77;27485;-51
2023/07/23 23:59:25;;;;;;;85.05;79.85;;;;;;;19.75;59.54;99462.84;1829651;78;25411;-52
